Time;durP1;ratioP1;P1;durP2;ratioP2;P2;SDS_P1;SDS_P2;PMS_P1;PMS_P2;Temp;Humidity;BMP_temperature;BMP_pressure;BME280_temperature;BME280_humidity;BME280_pressure;Samples;Min_cycle;Max_cycle;Signal;HPM_P1;HPM_P2
2022/04/14 00:00:34;;;;;;;4.67;0.60;;;;;;;5.46;79.64;100537.98;1910987;74;21012;-63
2022/04/14 00:03:03;;;;;;;1.45;0.40;;;;;;;5.41;79.94;100528.95;1904131;74;21419;-67
2022/04/14 00:05:32;;;;;;;3.52;0.30;;;;;;;5.34;80.11;100526.05;1909996;74;21040;-65
2022/04/14 00:08:00;;;;;;;0.55;0.45;;;;;;;5.31;80.30;100540.04;1904538;74;21004;-69
2022/04/14 00:10:29;;;;;;;0.72;0.72;;;;;;;5.28;80.40;100534.02;1905858;73;21094;-65
2022/04/14 00:12:57;;;;;;;1.27;0.50;;;;;;;5.29;80.42;100530.50;1872095;76;21157;-65
2022/04/14 00:15:27;;;;;;;0.40;0.40;;;;;;;5.29;80.33;100548.32;1871896;76;21014;-62
2022/04/14 00:17:56;;;;;;;0.30;0.30;;;;;;;5.27;80.22;100516.17;1885557;74;21494;-65
2022/04/14 00:20:25;;;;;;;1.55;0.78;;;;;;;5.21;80.37;100524.98;1872190;75;21475;-61
2022/04/14 00:22:53;;;;;;;0.45;0.40;;;;;;;5.12;81.26;100537.38;1876886;75;21041;-62
2022/04/14 00:25:22;;;;;;;0.88;0.40;;;;;;;5.09;81.40;100540.03;1871616;76;21033;-61
2022/04/14 00:27:51;;;;;;;0.50;0.50;;;;;;;5.09;81.53;100524.38;1870442;76;21040;-62
2022/04/14 00:30:19;;;;;;;1.57;0.45;;;;;;;5.07;82.08;100513.11;1874163;75;21041;-61
2022/04/14 00:32:48;;;;;;;1.10;0.78;;;;;;;5.09;82.17;100508.72;1872389;75;21146;-63
2022/04/14 00:35:17;;;;;;;2.30;0.75;;;;;;;5.13;81.96;100509.09;1872461;75;21140;-61
2022/04/14 00:37:45;;;;;;;0.37;0.30;;;;;;;5.15;81.93;100511.22;1871542;76;21040;-61
2022/04/14 00:40:14;;;;;;;1.87;0.62;;;;;;;5.19;82.02;100525.92;1869787;77;21060;-61
2022/04/14 00:42:43;;;;;;;1.12;0.50;;;;;;;5.22;82.01;100507.14;1869987;77;21049;-61
2022/04/14 00:45:11;;;;;;;1.15;0.78;;;;;;;5.26;81.94;100540.58;1869863;77;21107;-60
2022/04/14 00:47:41;;;;;;;0.55;0.55;;;;;;;5.31;81.57;100516.55;1872757;75;21003;-62
2022/04/14 00:50:10;;;;;;;1.10;0.50;;;;;;;5.34;81.52;100541.27;1900766;75;21439;-61
2022/04/14 00:52:45;;;;;;;1.12;0.65;;;;;;;5.38;81.39;100527.25;1901934;75;21102;-62
2022/04/14 00:55:15;;;;;;;2.05;1.62;;;;;;;5.41;81.33;100497.62;1901934;75;20999;-61
2022/04/14 00:57:44;;;;;;;1.35;0.68;;;;;;;5.38;81.24;100524.63;1882583;75;21006;-61
2022/04/14 01:00:14;;;;;;;0.40;0.40;;;;;;;5.38;80.93;100477.63;1869853;77;21059;-61
2022/04/14 01:02:42;;;;;;;2.85;0.75;;;;;;;5.37;81.08;100482.46;1869989;77;21015;-61
2022/04/14 01:05:13;;;;;;;0.42;0.42;;;;;;;5.35;81.16;100514.27;1869787;77;21604;-60
2022/04/14 01:07:44;;;;;;;2.45;1.02;;;;;;;5.35;81.21;100505.14;1869871;77;21120;-62
2022/04/14 01:10:12;;;;;;;2.50;0.80;;;;;;;5.38;81.31;100522.02;1900849;75;21040;-62
2022/04/14 01:12:41;;;;;;;2.37;0.65;;;;;;;5.43;81.38;100485.84;1880081;75;21516;-62
2022/04/14 01:15:14;;;;;;;1.87;0.80;;;;;;;5.45;81.34;100494.50;1877874;75;21201;-67
2022/04/14 01:17:43;;;;;;;1.02;0.80;;;;;;;5.50;81.16;100444.34;1874447;75;21177;-66
2022/04/14 01:20:13;;;;;;;1.37;0.42;;;;;;;5.51;81.15;100473.00;1876341;75;21122;-66
2022/04/14 01:22:48;;;;;;;0.40;0.40;;;;;;;5.53;81.07;100467.75;1874366;75;21074;-72
2022/04/14 01:25:17;;;;;;;1.10;0.70;;;;;;;5.55;81.10;100486.85;1878420;75;21554;-63
2022/04/14 01:27:45;;;;;;;0.70;0.60;;;;;;;5.58;81.14;100458.06;1885479;75;21580;-69
2022/04/14 01:30:14;;;;;;;10.05;1.85;;;;;;;5.59;81.17;100467.63;1913373;75;21163;-66
2022/04/14 01:32:43;;;;;;;0.40;0.40;;;;;;;5.58;81.04;100471.13;1891341;75;21098;-67
2022/04/14 01:35:12;;;;;;;1.42;0.50;;;;;;;5.61;81.08;100486.73;1893424;75;21055;-66
2022/04/14 01:37:40;;;;;;;1.30;0.80;;;;;;;5.61;81.13;100441.88;1895556;75;21502;-65
2022/04/14 01:40:11;;;;;;;1.85;0.47;;;;;;;5.64;81.12;100493.17;1908141;75;21137;-67
2022/04/14 01:42:40;;;;;;;1.65;0.60;;;;;;;5.66;81.11;100487.92;1897764;75;21101;-69
2022/04/14 01:45:10;;;;;;;0.53;0.37;;;;;;;5.68;80.54;100495.27;1907654;75;21031;-66
2022/04/14 01:47:41;;;;;;;0.47;0.47;;;;;;;5.70;80.46;100477.80;1890829;75;21093;-62
2022/04/14 01:50:12;;;;;;;0.82;0.55;;;;;;;5.70;80.61;100493.06;1914212;75;21121;-62
2022/04/14 01:52:44;;;;;;;0.50;0.50;;;;;;;5.69;80.64;100476.95;1915804;75;21023;-61
2022/04/14 01:55:13;;;;;;;1.98;0.50;;;;;;;5.69;80.33;100487.41;1876696;75;21106;-62
2022/04/14 01:57:42;;;;;;;0.30;0.30;;;;;;;5.70;79.97;100490.45;1910220;75;21470;-62
2022/04/14 02:00:13;;;;;;;0.42;0.42;;;;;;;5.70;79.90;100493.06;1905103;75;21156;-65
2022/04/14 02:02:42;;;;;;;0.55;0.40;;;;;;;5.68;79.92;100479.17;1883720;75;21023;-66
2022/04/14 02:05:11;;;;;;;2.08;0.40;;;;;;;5.64;80.01;100491.02;1872487;77;21027;-62
2022/04/14 02:07:40;;;;;;;1.12;1.02;;;;;;;5.58;80.10;100499.86;1907695;75;21031;-61
2022/04/14 02:10:09;;;;;;;0.82;0.57;;;;;;;5.55;79.83;100452.90;1921333;75;21040;-60
2022/04/14 02:12:37;;;;;;;0.37;0.37;;;;;;;5.52;79.51;100459.06;1921191;75;21124;-62
2022/04/14 02:15:06;;;;;;;2.62;0.80;;;;;;;5.51;79.69;100516.55;1921223;75;21160;-63
2022/04/14 02:17:35;;;;;;;0.53;0.30;;;;;;;5.56;79.85;100509.48;1921220;75;21117;-63
2022/04/14 02:20:05;;;;;;;0.35;0.35;;;;;;;5.37;80.66;100529.46;1889007;75;21088;-64
2022/04/14 02:22:39;;;;;;;0.40;0.40;;;;;;;5.27;81.39;100542.27;1882135;76;21108;-63
2022/04/14 02:25:09;;;;;;;1.35;0.53;;;;;;;5.23;81.63;100519.74;1881784;76;21030;-63
2022/04/14 02:27:37;;;;;;;0.93;0.70;;;;;;;5.21;81.78;100508.48;1879229;76;21047;-63
2022/04/14 02:30:07;;;;;;;0.95;0.55;;;;;;;5.19;81.80;100516.33;1869946;77;21149;-63
2022/04/14 02:32:36;;;;;;;0.30;0.30;;;;;;;5.18;81.64;100518.97;1870087;77;21073;-63
2022/04/14 02:35:05;;;;;;;2.83;0.55;;;;;;;5.15;81.64;100532.10;1869862;77;21093;-63
2022/04/14 02:37:34;;;;;;;1.10;0.40;;;;;;;5.10;81.76;100511.30;1869944;77;21093;-62
2022/04/14 02:40:04;;;;;;;3.27;1.72;;;;;;;5.07;81.82;100539.20;1869808;77;21018;-63
2022/04/14 02:42:32;;;;;;;1.07;0.60;;;;;;;5.05;82.03;100527.94;1869855;77;21043;-63
2022/04/14 02:45:01;;;;;;;2.30;0.60;;;;;;;5.03;82.08;100549.73;1869963;77;21030;-63
2022/04/14 02:47:30;;;;;;;0.85;0.60;;;;;;;5.02;82.01;100541.47;1869732;77;21584;-62
2022/04/14 02:49:59;;;;;;;0.90;0.50;;;;;;;5.01;82.07;100514.95;1869847;77;21019;-62
2022/04/14 02:52:27;;;;;;;0.47;0.47;;;;;;;5.02;82.22;100538.86;1869945;77;21011;-61
2022/04/14 02:54:56;;;;;;;0.78;0.60;;;;;;;4.96;82.55;100542.91;1874121;75;21067;-61
2022/04/14 02:57:25;;;;;;;0.40;0.40;;;;;;;4.95;82.63;100522.91;1901875;75;21043;-63
2022/04/14 02:59:53;;;;;;;1.17;0.62;;;;;;;4.94;82.91;100525.11;1902008;75;21121;-62
2022/04/14 03:02:22;;;;;;;0.85;0.80;;;;;;;4.97;83.17;100382.83;1901922;75;21080;-63
2022/04/14 03:04:51;;;;;;;4.33;1.10;;;;;;;4.97;83.28;100577.22;1901875;75;21032;-63
2022/04/14 03:07:23;;;;;;;2.98;0.57;;;;;;;4.95;83.26;100573.78;1901951;75;21420;-62
2022/04/14 03:09:52;;;;;;;0.55;0.40;;;;;;;4.98;83.09;100475.88;1901894;75;21459;-64
2022/04/14 03:12:20;;;;;;;4.03;1.20;;;;;;;4.98;83.02;100564.61;1901770;75;21032;-64
2022/04/14 03:14:50;;;;;;;0.33;0.33;;;;;;;5.00;82.85;100570.66;1901732;75;21530;-62
2022/04/14 03:17:19;;;;;;;0.35;0.35;;;;;;;5.01;82.73;100548.87;1901892;75;21490;-61
2022/04/14 03:19:47;;;;;;;0.40;0.40;;;;;;;5.00;82.68;100565.43;1902043;75;21560;-63
2022/04/14 03:22:16;;;;;;;1.00;0.90;;;;;;;5.03;82.69;100591.48;1901901;75;21066;-62
2022/04/14 03:24:45;;;;;;;1.98;0.57;;;;;;;5.01;82.82;100564.52;1901778;75;21040;-63
2022/04/14 03:27:13;;;;;;;1.70;0.98;;;;;;;5.01;82.96;100580.19;1901974;75;21082;-62
2022/04/14 03:29:42;;;;;;;2.65;0.50;;;;;;;5.01;82.97;100560.61;1911635;75;21169;-62
2022/04/14 03:32:10;;;;;;;1.07;0.40;;;;;;;5.03;82.81;100574.94;1914520;75;21469;-63
2022/04/14 03:34:39;;;;;;;1.00;0.47;;;;;;;5.03;82.65;100586.68;1914453;75;21117;-61
2022/04/14 03:37:08;;;;;;;0.95;0.50;;;;;;;5.07;82.51;100575.74;1914461;75;21093;-62
2022/04/14 03:39:36;;;;;;;0.45;0.45;;;;;;;5.04;82.28;100585.81;1914615;75;21110;-61
2022/04/14 03:42:06;;;;;;;0.30;0.30;;;;;;;5.03;82.33;100603.22;1914628;75;21047;-62
2022/04/14 03:44:34;;;;;;;0.62;0.40;;;;;;;5.10;82.33;100567.87;1914552;75;21035;-62
2022/04/14 03:47:03;;;;;;;5.92;0.42;;;;;;;5.11;82.21;100582.62;1914664;75;21091;-62
2022/04/14 03:49:32;;;;;;;0.37;0.33;;;;;;;5.14;82.27;100572.98;1914519;75;21031;-62
2022/04/14 03:52:01;;;;;;;0.47;0.40;;;;;;;5.17;82.35;100583.83;1914328;75;21028;-62
2022/04/14 03:54:29;;;;;;;0.30;0.30;;;;;;;5.21;82.23;100585.03;1914450;75;21047;-62
2022/04/14 03:56:58;;;;;;;0.30;0.30;;;;;;;5.19;82.36;100604.23;1882690;75;21051;-63
2022/04/14 03:59:26;;;;;;;0.20;0.20;;;;;;;5.26;82.16;100598.01;1882072;76;21110;-62
2022/04/14 04:01:55;;;;;;;0.72;0.50;;;;;;;5.30;81.95;100586.61;1882048;76;21128;-62
2022/04/14 04:04:24;;;;;;;0.60;0.47;;;;;;;5.34;81.69;100600.46;1882080;76;21035;-62
2022/04/14 04:06:52;;;;;;;0.47;0.47;;;;;;;5.35;81.61;100604.36;1881980;76;21114;-62
2022/04/14 04:09:21;;;;;;;1.00;0.78;;;;;;;5.41;81.60;100592.47;1881943;76;21047;-63
2022/04/14 04:11:50;;;;;;;1.67;0.57;;;;;;;5.44;81.38;100596.80;1882034;76;21047;-63
2022/04/14 04:14:19;;;;;;;0.50;0.50;;;;;;;5.49;81.22;100594.92;1881946;76;21655;-63
2022/04/14 04:16:48;;;;;;;0.37;0.37;;;;;;;5.56;81.19;100515.55;1881943;76;21176;-64
2022/04/14 04:19:17;;;;;;;0.80;0.35;;;;;;;5.61;80.96;100544.20;1881919;76;21114;-62
2022/04/14 04:21:45;;;;;;;0.50;0.50;;;;;;;5.64;80.60;100572.84;1881942;76;21153;-63
2022/04/14 04:24:14;;;;;;;0.60;0.60;;;;;;;5.81;80.54;100590.80;1881902;76;21047;-63
2022/04/14 04:26:43;;;;;;;0.75;0.47;;;;;;;6.16;80.12;100556.05;1881870;76;21054;-63
2022/04/14 04:29:12;;;;;;;0.55;0.55;;;;;;;6.44;79.67;100564.53;1878945;76;21514;-63
2022/04/14 04:31:41;;;;;;;0.78;0.78;;;;;;;6.85;79.21;100561.75;1869937;77;21024;-63
2022/04/14 04:34:09;;;;;;;1.37;0.68;;;;;;;6.96;77.21;100556.63;1870091;77;21467;-63
2022/04/14 04:36:38;;;;;;;1.60;0.50;;;;;;;6.80;76.36;100517.83;1869959;77;21178;-62
2022/04/14 04:39:06;;;;;;;2.00;0.65;;;;;;;6.77;77.02;100585.51;1869874;77;21015;-62
2022/04/14 04:41:35;;;;;;;1.12;0.60;;;;;;;6.79;76.88;100571.93;1869871;77;21040;-62
2022/04/14 04:44:04;;;;;;;0.60;0.60;;;;;;;6.81;76.91;100534.80;1869733;77;21084;-64
2022/04/14 04:46:33;;;;;;;3.35;0.50;;;;;;;7.29;76.49;100550.52;1869837;77;21112;-62
2022/04/14 04:49:02;;;;;;;2.30;1.17;;;;;;;7.73;76.14;100572.78;1872355;73;21177;-64
2022/04/14 04:51:31;;;;;;;1.07;0.70;;;;;;;8.00;74.85;100587.25;1902775;75;21101;-61
2022/04/14 04:54:00;;;;;;;0.68;0.68;;;;;;;8.15;74.04;100591.62;1891135;76;21040;-63
2022/04/14 04:56:29;;;;;;;0.40;0.40;;;;;;;8.47;72.55;100544.26;1880912;76;21007;-63
2022/04/14 04:58:58;;;;;;;0.42;0.40;;;;;;;8.41;70.81;100582.48;1861655;76;21040;-63
2022/04/14 05:01:27;;;;;;;0.40;0.40;;;;;;;8.35;70.55;100588.38;1852671;77;21491;-63
2022/04/14 05:03:56;;;;;;;0.40;0.40;;;;;;;8.34;70.67;100582.28;1885990;76;21092;-63
2022/04/14 05:06:24;;;;;;;0.75;0.75;;;;;;;8.54;71.08;100597.41;1852708;77;21130;-63
2022/04/14 05:08:53;;;;;;;0.82;0.62;;;;;;;8.83;70.36;100593.78;1912004;75;21039;-63
2022/04/14 05:11:21;;;;;;;0.72;0.57;;;;;;;8.96;69.57;100560.08;1919194;75;21075;-63
2022/04/14 05:13:50;;;;;;;0.55;0.55;;;;;;;9.01;69.02;100574.38;1919114;75;21104;-64
2022/04/14 05:16:19;;;;;;;0.55;0.50;;;;;;;9.19;69.40;100575.04;1919021;75;21047;-62
2022/04/14 05:18:48;;;;;;;0.50;0.50;;;;;;;9.58;68.63;100542.94;1919127;75;21038;-63
2022/04/14 05:21:16;;;;;;;0.35;0.35;;;;;;;9.83;68.15;100587.56;1919228;75;21418;-61
2022/04/14 05:23:45;;;;;;;1.55;0.70;;;;;;;10.03;67.13;100589.86;1919090;74;21477;-61
2022/04/14 05:26:14;;;;;;;0.70;0.55;;;;;;;10.18;66.46;100589.72;1919030;75;21043;-61
2022/04/14 05:28:42;;;;;;;1.37;0.50;;;;;;;10.43;66.13;100587.00;1918936;74;21101;-62
2022/04/14 05:31:11;;;;;;;3.25;0.70;;;;;;;10.27;64.85;100609.55;1919010;75;21043;-61
2022/04/14 05:33:40;;;;;;;0.40;0.40;;;;;;;10.46;64.76;100607.06;1919082;75;21097;-63
2022/04/14 05:36:08;;;;;;;1.92;0.57;;;;;;;10.85;64.65;100592.72;1919048;75;21039;-62
2022/04/14 05:38:37;;;;;;;0.28;0.28;;;;;;;11.08;63.13;100588.23;1919074;75;21108;-62
2022/04/14 05:41:05;;;;;;;0.40;0.40;;;;;;;11.14;62.83;100591.91;1919082;75;21015;-63
2022/04/14 05:43:34;;;;;;;0.50;0.50;;;;;;;11.16;62.28;100604.11;1918175;74;21121;-62
2022/04/14 05:46:03;;;;;;;1.85;0.50;;;;;;;11.34;62.47;100562.91;1852853;77;21128;-61
2022/04/14 05:48:32;;;;;;;0.33;0.30;;;;;;;11.81;61.57;100603.84;1852829;77;21069;-62
2022/04/14 05:51:00;;;;;;;0.82;0.40;;;;;;;11.90;61.07;100619.75;1861688;76;21057;-63
2022/04/14 05:53:30;;;;;;;1.15;0.53;;;;;;;12.24;60.82;100554.33;1868438;77;21535;-63
2022/04/14 05:55:59;;;;;;;0.40;0.40;;;;;;;12.67;60.45;100601.08;1868473;75;21059;-64
2022/04/14 05:58:28;;;;;;;0.98;0.45;;;;;;;13.12;58.72;100619.95;1868574;77;21203;-63
2022/04/14 06:00:57;;;;;;;0.42;0.40;;;;;;;12.74;57.93;100630.66;1868343;77;21045;-63
2022/04/14 06:03:26;;;;;;;0.30;0.30;;;;;;;12.55;58.67;100617.52;1868410;77;21021;-63
2022/04/14 06:05:54;;;;;;;0.40;0.40;;;;;;;12.36;59.26;100643.50;1868309;77;21550;-63
2022/04/14 06:08:24;;;;;;;0.30;0.30;;;;;;;12.06;59.12;100626.03;1868248;77;21123;-63
2022/04/14 06:10:53;;;;;;;0.28;0.28;;;;;;;12.12;59.68;100613.01;1868308;75;21612;-63
2022/04/14 06:13:21;;;;;;;0.40;0.40;;;;;;;12.67;58.55;100643.34;1868263;75;21057;-63
2022/04/14 06:15:50;;;;;;;0.95;0.40;;;;;;;12.98;57.37;100637.82;1868252;77;21119;-63
2022/04/14 06:18:21;;;;;;;0.30;0.30;;;;;;;12.99;57.68;100643.52;1868343;77;21056;-63
2022/04/14 06:20:50;;;;;;;0.30;0.30;;;;;;;13.00;57.26;100606.87;1868246;77;21021;-63
2022/04/14 06:23:18;;;;;;;0.40;0.40;;;;;;;12.61;57.29;100638.81;1868362;77;21464;-63
2022/04/14 06:25:50;;;;;;;0.62;0.50;;;;;;;12.74;57.73;100602.92;1868327;77;21069;-62
2022/04/14 06:28:19;;;;;;;0.65;0.30;;;;;;;12.54;57.50;100646.17;1868583;75;21057;-62
2022/04/14 06:30:50;;;;;;;0.30;0.30;;;;;;;12.57;57.83;100646.03;1868327;76;21061;-62
2022/04/14 06:33:20;;;;;;;0.50;0.50;;;;;;;12.50;57.83;100624.81;1868331;77;21074;-62
2022/04/14 06:35:49;;;;;;;0.42;0.40;;;;;;;12.87;58.24;100631.78;1868376;77;21578;-62
2022/04/14 06:38:19;;;;;;;0.60;0.40;;;;;;;13.01;57.31;100654.86;1868390;77;21025;-62
2022/04/14 06:40:48;;;;;;;0.30;0.23;;;;;;;12.61;57.44;100655.51;1868350;77;21086;-62
2022/04/14 06:43:16;;;;;;;0.40;0.40;;;;;;;12.50;58.51;100660.45;1868373;77;21029;-62
2022/04/14 06:45:45;;;;;;;0.95;0.47;;;;;;;12.58;58.46;100644.23;1896274;75;21042;-63
2022/04/14 06:48:14;;;;;;;3.47;0.50;;;;;;;12.57;58.69;100664.52;1935532;74;21093;-62
2022/04/14 06:50:43;;;;;;;0.47;0.35;;;;;;;12.79;58.13;100668.76;1899652;75;21151;-62
2022/04/14 06:53:12;;;;;;;0.98;0.50;;;;;;;12.67;58.23;100675.04;1882100;76;21075;-62
2022/04/14 06:55:42;;;;;;;0.60;0.45;;;;;;;12.86;58.34;100696.59;1928890;74;21548;-62
2022/04/14 06:58:11;;;;;;;0.45;0.40;;;;;;;12.53;58.66;100689.38;1957566;73;21082;-63
2022/04/14 07:00:40;;;;;;;0.30;0.30;;;;;;;12.28;58.68;100701.11;1957376;73;21503;-63
2022/04/14 07:03:09;;;;;;;1.00;0.37;;;;;;;11.89;59.43;100720.42;1957460;73;21124;-63
2022/04/14 07:05:38;;;;;;;0.20;0.20;;;;;;;11.54;60.27;100710.96;1957420;73;21055;-62
2022/04/14 07:08:07;;;;;;;0.40;0.40;;;;;;;11.34;61.26;100707.02;1957507;73;21046;-64
2022/04/14 07:10:35;;;;;;;0.98;0.70;;;;;;;11.12;61.72;100651.73;1957510;73;21031;-63
2022/04/14 07:13:04;;;;;;;1.47;0.30;;;;;;;10.86;62.71;100719.53;1957351;73;21098;-63
2022/04/14 07:15:33;;;;;;;0.50;0.50;;;;;;;10.54;63.44;100694.50;1957518;73;21307;-63
2022/04/14 07:18:01;;;;;;;0.28;0.28;;;;;;;10.35;64.18;100711.02;1957522;73;21031;-63
2022/04/14 07:20:30;;;;;;;0.50;0.40;;;;;;;10.18;65.22;100738.37;1957394;73;21097;-62
2022/04/14 07:22:59;;;;;;;0.50;0.50;;;;;;;10.08;65.32;100715.98;1957446;73;21148;-63
2022/04/14 07:25:30;;;;;;;0.30;0.30;;;;;;;9.95;65.66;100741.41;1957360;73;21422;-63
2022/04/14 07:27:59;;;;;;;0.30;0.30;;;;;;;9.93;66.21;100745.87;1957446;73;21093;-62
2022/04/14 07:33:17;;;;;;;0.75;0.50;;;;;;;9.69;66.96;100751.55;1847877;78;21051;-62
2022/04/14 07:35:46;;;;;;;0.65;0.50;;;;;;;9.76;67.49;100752.20;1847633;78;21128;-62
2022/04/14 07:38:15;;;;;;;0.47;0.40;;;;;;;9.75;67.32;100725.50;1847776;78;21074;-61
2022/04/14 07:40:43;;;;;;;0.30;0.30;;;;;;;9.76;67.74;100754.84;1847816;78;21125;-62
2022/04/14 07:43:12;;;;;;;2.60;0.70;;;;;;;9.74;67.61;100731.22;1847801;78;21031;-62
2022/04/14 07:45:47;;;;;;;0.30;0.30;;;;;;;9.88;67.49;100758.79;1819658;78;21535;-61
2022/04/14 07:48:12;;;;;;;0.78;0.30;;;;;;;10.13;67.23;100752.19;1816170;79;21050;-63
2022/04/14 07:50:41;;;;;;;0.50;0.50;;;;;;;10.29;66.41;100738.86;1816428;79;21168;-61
2022/04/14 07:53:10;;;;;;;0.25;0.25;;;;;;;10.32;66.14;100755.86;1816336;79;21022;-61
2022/04/14 07:55:39;;;;;;;0.40;0.30;;;;;;;10.34;65.99;100760.61;1816343;79;21074;-61
2022/04/14 07:58:09;;;;;;;1.47;0.30;;;;;;;10.32;66.19;100753.70;1816332;79;21509;-61
2022/04/14 08:00:40;;;;;;;0.82;0.47;;;;;;;10.28;66.41;100747.66;1816298;79;21593;-61
2022/04/14 08:03:09;;;;;;;0.28;0.28;;;;;;;10.23;67.02;100764.08;1816322;79;21050;-62
2022/04/14 08:05:41;;;;;;;0.35;0.35;;;;;;;10.06;67.58;100767.33;1816510;79;21136;-62
2022/04/14 08:08:15;;;;;;;0.37;0.37;;;;;;;9.88;67.97;100763.58;1816369;77;21457;-62
2022/04/14 08:10:47;;;;;;;0.20;0.20;;;;;;;9.73;68.88;100758.87;1816408;79;21082;-61
2022/04/14 08:13:17;;;;;;;0.42;0.20;;;;;;;9.62;69.25;100762.73;1816418;79;21141;-62
2022/04/14 08:15:47;;;;;;;1.65;0.30;;;;;;;9.57;70.11;100777.83;1816398;79;21196;-61
2022/04/14 08:18:15;;;;;;;0.28;0.28;;;;;;;9.49;70.45;100761.91;1816426;78;21484;-61
2022/04/14 08:20:44;;;;;;;0.30;0.30;;;;;;;9.41;71.36;100780.10;1816550;79;21125;-61
2022/04/14 08:23:14;;;;;;;0.35;0.30;;;;;;;9.35;71.99;100747.91;1816481;79;21046;-61
2022/04/14 08:25:43;;;;;;;0.30;0.30;;;;;;;9.28;72.06;100774.39;1816415;79;21545;-61
2022/04/14 08:28:13;;;;;;;0.30;0.30;;;;;;;9.22;72.39;100786.86;1816348;79;21641;-61
2022/04/14 08:30:44;;;;;;;0.20;0.20;;;;;;;9.16;72.74;100774.78;1816411;79;21134;-61
2022/04/14 08:33:14;;;;;;;0.20;0.20;;;;;;;9.03;72.79;100807.62;1818284;77;21057;-61
2022/04/14 08:35:44;;;;;;;0.20;0.20;;;;;;;8.97;73.06;100785.50;1819038;79;21058;-61
2022/04/14 08:38:12;;;;;;;0.30;0.30;;;;;;;8.95;73.38;100805.70;1819045;79;21136;-62
2022/04/14 08:40:42;;;;;;;0.30;0.30;;;;;;;8.97;73.39;100794.23;1818973;78;21140;-62
2022/04/14 08:43:11;;;;;;;0.20;0.20;;;;;;;8.97;73.69;100813.07;1819157;79;21066;-61
2022/04/14 08:45:50;;;;;;;0.30;0.30;;;;;;;8.91;74.11;100817.18;1849853;77;21050;-62
2022/04/14 08:48:21;;;;;;;1.27;0.40;;;;;;;8.89;74.47;100816.80;1853495;77;21445;-61
2022/04/14 08:50:51;;;;;;;0.40;0.40;;;;;;;8.87;74.71;100809.85;1853624;77;21050;-62
2022/04/14 08:53:27;;;;;;;0.30;0.30;;;;;;;8.87;74.60;100833.05;1853595;77;21607;-61
2022/04/14 08:55:57;;;;;;;0.30;0.30;;;;;;;8.79;74.77;100844.22;1853553;77;21038;-62
2022/04/14 08:58:29;;;;;;;0.30;0.30;;;;;;;8.68;75.19;100805.63;1853487;77;21128;-62
2022/04/14 09:00:58;;;;;;;0.30;0.30;;;;;;;8.58;75.60;100831.75;1853444;77;21050;-63
2022/04/14 09:03:28;;;;;;;0.33;0.33;;;;;;;8.62;76.00;100849.98;1853392;77;21464;-63
2022/04/14 09:05:57;;;;;;;0.50;0.35;;;;;;;8.73;76.12;100825.19;1853554;77;21044;-61
2022/04/14 09:08:26;;;;;;;0.30;0.30;;;;;;;8.78;75.99;100844.27;1853479;77;21129;-63
2022/04/14 09:10:55;;;;;;;1.00;0.30;;;;;;;8.63;76.21;100839.02;1853438;77;21580;-62
2022/04/14 09:13:24;;;;;;;0.40;0.35;;;;;;;8.53;76.31;100858.12;1853485;77;21079;-62
2022/04/14 09:15:52;;;;;;;0.45;0.45;;;;;;;8.45;76.72;100874.09;1853546;77;21062;-63
2022/04/14 09:18:21;;;;;;;0.30;0.30;;;;;;;8.45;77.21;100874.55;1853399;77;21145;-62
2022/04/14 09:20:51;;;;;;;0.23;0.23;;;;;;;8.39;77.83;100871.61;1853436;77;21148;-61
2022/04/14 09:23:21;;;;;;;0.20;0.20;;;;;;;8.37;78.11;100860.27;1850951;77;21066;-61
2022/04/14 09:25:53;;;;;;;0.23;0.23;;;;;;;8.33;78.17;100894.52;1853374;77;21054;-61
2022/04/14 09:28:22;;;;;;;0.33;0.33;;;;;;;8.28;78.19;100899.88;1851458;77;21098;-62
2022/04/14 09:31:05;;;;;;;0.20;0.20;;;;;;;8.26;78.45;100908.24;1853397;77;21644;-62
2022/04/14 09:33:36;;;;;;;0.40;0.40;;;;;;;8.29;78.36;100906.86;1854435;77;21512;-61
2022/04/14 09:36:10;;;;;;;0.30;0.30;;;;;;;8.34;78.07;100906.29;1854972;77;21485;-61
2022/04/14 09:39:05;;;;;;;0.20;0.20;;;;;;;8.36;77.83;100924.16;1854919;77;21129;-62
2022/04/14 09:41:41;;;;;;;0.65;0.42;;;;;;;8.39;77.66;100925.83;1855233;77;21090;-61
2022/04/14 09:44:15;;;;;;;0.20;0.20;;;;;;;8.40;77.65;100915.30;1855690;77;21116;-62
2022/04/14 09:46:45;;;;;;;0.55;0.30;;;;;;;8.43;77.24;100929.69;1857841;77;21031;-62
2022/04/14 09:49:16;;;;;;;0.30;0.30;;;;;;;8.48;76.98;100938.73;1857570;77;21473;-61
2022/04/14 09:51:47;;;;;;;0.20;0.20;;;;;;;8.52;77.05;100929.02;1857675;77;21125;-61
2022/04/14 09:54:20;;;;;;;0.20;0.20;;;;;;;8.52;77.01;100937.77;1857612;77;21489;-63
2022/04/14 09:56:54;;;;;;;0.10;0.10;;;;;;;8.52;76.72;100943.45;1857838;77;21132;-62
2022/04/14 09:59:32;;;;;;;0.30;0.30;;;;;;;8.54;76.55;100945.15;1857734;77;21055;-62
2022/04/14 10:02:16;;;;;;;0.25;0.25;;;;;;;8.56;76.48;100944.66;1857700;77;21129;-62
2022/04/14 10:04:49;;;;;;;0.20;0.20;;;;;;;8.55;76.47;100933.73;1857875;77;21023;-61
2022/04/14 10:07:19;;;;;;;0.30;0.30;;;;;;;8.59;76.27;100948.94;1857880;77;21046;-62
2022/04/14 10:09:55;;;;;;;0.30;0.30;;;;;;;8.65;76.43;100938.27;1857603;77;21579;-62
2022/04/14 10:12:29;;;;;;;1.37;0.50;;;;;;;8.82;75.75;100946.55;1857418;77;21055;-62
2022/04/14 10:15:09;;;;;;;0.13;0.13;;;;;;;8.82;75.75;100946.55;1857563;77;21078;-62
2022/04/14 10:17:39;;;;;;;0.75;0.50;;;;;;;8.99;76.01;100955.70;1857075;77;21512;-61
2022/04/14 10:20:12;;;;;;;0.72;0.50;;;;;;;9.11;75.92;100950.53;1855566;77;21050;-61
2022/04/14 10:22:41;;;;;;;0.33;0.33;;;;;;;9.15;75.91;100949.10;1855249;77;21085;-61
2022/04/14 10:25:12;;;;;;;1.57;0.60;;;;;;;9.15;75.87;100945.16;1857801;77;21546;-61
2022/04/14 10:27:41;;;;;;;1.95;0.55;;;;;;;9.24;75.71;100963.70;1859768;77;21129;-61
2022/04/14 10:30:10;;;;;;;2.08;0.70;;;;;;;9.27;75.68;100964.48;1858613;77;21034;-61
2022/04/14 10:32:42;;;;;;;0.50;0.50;;;;;;;9.26;75.74;100968.03;1855042;77;21022;-61
2022/04/14 10:35:11;;;;;;;0.20;0.20;;;;;;;9.30;75.66;100975.83;1854819;77;21078;-61
2022/04/14 10:37:49;;;;;;;0.30;0.30;;;;;;;9.29;75.61;100981.52;1855008;77;21062;-61
2022/04/14 10:40:18;;;;;;;0.30;0.30;;;;;;;9.27;75.60;100982.87;1854342;77;21011;-62
2022/04/14 10:42:57;;;;;;;0.90;0.68;;;;;;;9.25;75.51;100996.97;1848686;78;21070;-60
2022/04/14 10:45:26;;;;;;;1.47;0.75;;;;;;;9.23;75.52;100997.02;1848643;78;21465;-61
2022/04/14 10:47:58;;;;;;;0.98;0.80;;;;;;;9.26;75.55;101001.34;1848661;78;21548;-61
2022/04/14 10:50:33;;;;;;;1.77;1.17;;;;;;;9.31;75.50;101004.66;1848798;78;21060;-61
2022/04/14 10:53:11;;;;;;;2.12;1.10;;;;;;;9.35;75.37;101023.83;1848678;78;21075;-61
2022/04/14 10:55:45;;;;;;;4.03;1.27;;;;;;;9.43;75.19;101032.37;1852980;77;21116;-60
2022/04/14 10:58:32;;;;;;;3.72;0.93;;;;;;;9.45;75.19;101033.17;1854868;77;21195;-61
2022/04/14 11:01:00;;;;;;;1.10;0.70;;;;;;;9.48;75.20;101038.36;1854928;77;21121;-62
2022/04/14 11:03:47;;;;;;;2.52;0.88;;;;;;;9.50;75.11;101049.69;1854985;77;21137;-61
2022/04/14 11:06:44;;;;;;;6.25;1.52;;;;;;;9.48;75.10;101051.50;1830181;77;21488;-63
2022/04/14 11:09:42;;;;;;;1.65;1.12;;;;;;;9.43;75.01;101057.34;1854898;77;21113;-62
2022/04/14 11:12:18;;;;;;;1.02;0.98;;;;;;;9.34;75.21;101062.86;1854924;77;21042;-61
2022/04/14 11:14:56;;;;;;;1.32;1.17;;;;;;;9.33;75.20;101066.38;1854804;77;21493;-60
2022/04/14 11:17:50;;;;;;;2.25;1.30;;;;;;;9.38;75.10;101071.06;1854609;77;21129;-61
2022/04/14 11:20:24;;;;;;;1.72;1.22;;;;;;;9.45;75.05;101070.83;1855056;77;21035;-61
2022/04/14 11:23:13;;;;;;;3.00;1.55;;;;;;;9.53;75.00;101075.86;1859141;77;21082;-62
2022/04/14 11:25:50;;;;;;;4.10;2.30;;;;;;;9.60;74.92;101076.55;1859760;77;21054;-61
2022/04/14 11:28:27;;;;;;;3.12;1.17;;;;;;;9.65;74.80;101080.77;1856449;77;21124;-60
2022/04/14 11:31:21;;;;;;;1.02;0.70;;;;;;;9.71;74.73;101090.70;1854545;77;21509;-63
2022/04/14 11:33:53;;;;;;;3.72;1.20;;;;;;;9.69;74.71;101091.20;1854116;77;21056;-60
2022/04/14 11:36:27;;;;;;;3.20;1.72;;;;;;;9.62;74.71;101101.87;1855255;77;21048;-61
2022/04/14 11:39:04;;;;;;;0.70;0.70;;;;;;;9.55;74.77;101104.27;1857648;77;21066;-61
2022/04/14 11:41:38;;;;;;;3.25;1.22;;;;;;;9.49;74.86;101108.41;1857656;77;21143;-62
2022/04/14 11:44:15;;;;;;;2.35;1.47;;;;;;;9.47;74.86;101110.22;1857613;77;21512;-61
2022/04/14 11:46:46;;;;;;;1.30;1.07;;;;;;;9.46;74.83;101121.63;1857677;77;21537;-61
2022/04/14 11:49:21;;;;;;;1.07;0.98;;;;;;;9.44;74.75;101124.32;1853108;77;21565;-61